Time;durP1;ratioP1;P1;durP2;ratioP2;P2;SDS_P1;SDS_P2;PMS_P1;PMS_P2;Temp;Humidity;BMP_temperature;BMP_pressure;BME280_temperature;BME280_humidity;BME280_pressure;Samples;Min_cycle;Max_cycle;Signal;HPM_P1;HPM_P2
2021/07/16 00:00:55;;;;;;;4.88;4.47;;;;;;;19.92;73.88;100572.38;4902489;28;117466;-66
2021/07/16 00:03:21;;;;;;;4.97;4.43;;;;;;;19.80;73.50;100573.06;4902119;28;129080;-72
2021/07/16 00:05:47;;;;;;;5.45;4.30;;;;;;;19.84;73.65;100574.00;4902571;28;98603;-65
2021/07/16 00:08:13;;;;;;;8.38;3.78;;;;;;;19.60;73.66;100580.00;4902727;28;127535;-65
2021/07/16 00:10:39;;;;;;;6.55;4.30;;;;;;;19.75;72.74;100576.78;4901978;28;115858;-72
2021/07/16 00:13:06;;;;;;;4.25;3.60;;;;;;;19.81;73.37;100574.69;4868733;28;98555;-65
2021/07/16 00:15:32;;;;;;;4.40;4.00;;;;;;;19.79;72.91;100576.94;4903319;28;98870;-72
2021/07/16 00:17:58;;;;;;;5.43;4.18;;;;;;;19.80;72.67;100578.53;4903057;28;123541;-65
2021/07/16 00:20:24;;;;;;;4.53;3.83;;;;;;;19.80;72.85;100586.75;4901118;28;105168;-72
2021/07/16 00:22:50;;;;;;;4.43;4.03;;;;;;;19.79;73.08;100587.88;4881207;28;125894;-72
2021/07/16 00:25:16;;;;;;;4.20;3.50;;;;;;;19.84;73.11;100588.50;4901240;28;98039;-72
2021/07/16 00:27:42;;;;;;;4.00;3.60;;;;;;;19.81;73.34;100582.91;4901455;28;97888;-72
2021/07/16 00:30:10;;;;;;;4.13;3.83;;;;;;;19.82;72.82;100579.81;4885892;28;98116;-71
2021/07/16 00:32:36;;;;;;;4.70;4.03;;;;;;;19.63;73.33;100587.59;4884432;28;98455;-72
2021/07/16 00:35:02;;;;;;;4.80;4.30;;;;;;;19.70;73.91;100592.56;4901837;28;128411;-65
2021/07/16 00:37:29;;;;;;;4.53;4.10;;;;;;;19.63;73.65;100598.53;4903071;28;97880;-71
2021/07/16 00:39:55;;;;;;;4.30;4.00;;;;;;;19.58;74.08;100599.47;4902875;28;97967;-72
2021/07/16 00:42:21;;;;;;;6.60;3.90;;;;;;;19.48;73.97;100605.28;4902183;28;127715;-71
2021/07/16 00:44:47;;;;;;;4.88;4.10;;;;;;;19.53;73.81;100591.47;4902596;28;98175;-72
2021/07/16 00:47:13;;;;;;;5.43;4.20;;;;;;;19.49;74.03;100598.69;4902418;28;127649;-65
2021/07/16 00:49:39;;;;;;;4.93;4.28;;;;;;;19.40;74.41;100600.63;4849779;28;105509;-72
2021/07/16 00:52:06;;;;;;;4.45;4.05;;;;;;;19.35;74.13;100601.59;4872331;28;128137;-65
2021/07/16 00:54:32;;;;;;;5.50;4.22;;;;;;;19.12;74.75;100609.16;4881574;28;98255;-65
2021/07/16 00:56:58;;;;;;;4.93;4.43;;;;;;;19.25;75.27;100601.09;4897003;28;127114;-72
2021/07/16 00:59:25;;;;;;;4.70;4.20;;;;;;;19.21;74.82;100600.94;4884809;28;97855;-71
2021/07/16 01:01:51;;;;;;;4.90;4.38;;;;;;;19.25;74.75;100601.91;4884557;28;98386;-71
2021/07/16 01:04:17;;;;;;;4.55;4.10;;;;;;;19.26;74.82;100598.06;4879761;28;127775;-72
2021/07/16 01:06:43;;;;;;;5.95;4.40;;;;;;;19.33;75.26;100595.63;4899449;28;117540;-71
2021/07/16 01:09:09;;;;;;;4.70;4.30;;;;;;;19.28;74.84;100600.47;4901956;28;115919;-65
2021/07/16 01:11:35;;;;;;;4.60;4.20;;;;;;;19.09;75.61;100604.31;4900931;28;99119;-65
2021/07/16 01:14:02;;;;;;;4.70;4.30;;;;;;;18.94;75.69;100598.53;4900283;28;98828;-65
2021/07/16 01:16:28;;;;;;;5.40;4.90;;;;;;;19.07;75.29;100592.94;4902203;28;98494;-72
2021/07/16 01:18:54;;;;;;;5.43;4.30;;;;;;;19.09;75.73;100595.31;4901759;28;97744;-65
2021/07/16 01:21:20;;;;;;;4.88;4.47;;;;;;;18.96;75.71;100591.63;4883941;28;122228;-72
2021/07/16 01:23:46;;;;;;;6.30;4.70;;;;;;;18.95;75.75;100589.22;4883911;28;98479;-71
2021/07/16 01:26:13;;;;;;;5.53;5.05;;;;;;;18.96;75.64;100586.16;4899806;28;102164;-65
2021/07/16 01:28:39;;;;;;;5.10;4.60;;;;;;;19.03;75.43;100586.50;4883982;28;116846;-65
2021/07/16 01:31:06;;;;;;;5.78;4.63;;;;;;;19.15;75.26;100583.13;4867386;28;106376;-72
2021/07/16 01:33:32;;;;;;;5.40;4.90;;;;;;;19.07;75.20;100590.19;4880502;28;117468;-71
2021/07/16 01:35:59;;;;;;;5.53;4.95;;;;;;;19.05;75.36;100578.78;4881015;28;98002;-65
2021/07/16 01:38:26;;;;;;;5.47;4.97;;;;;;;19.09;75.21;100571.53;4891024;28;97970;-72
2021/07/16 01:40:53;;;;;;;5.10;4.60;;;;;;;19.19;75.37;100581.34;4900362;28;98794;-71
2021/07/16 01:43:19;;;;;;;4.85;4.43;;;;;;;18.97;75.36;100576.84;4900965;28;117909;-65
2021/07/16 01:45:45;;;;;;;5.03;4.20;;;;;;;19.16;75.18;100581.19;4901932;28;106995;-72
2021/07/16 01:48:14;;;;;;;5.50;5.03;;;;;;;19.02;75.75;100575.88;4901737;28;117842;-72
2021/07/16 01:50:43;;;;;;;5.57;5.07;;;;;;;18.92;75.67;100571.56;4901920;28;99586;-65
2021/07/16 01:53:11;;;;;;;4.78;4.35;;;;;;;19.04;75.62;100568.97;4902165;28;98601;-66
2021/07/16 01:55:38;;;;;;;4.82;4.30;;;;;;;19.01;75.33;100566.88;4901545;28;97855;-65
2021/07/16 01:58:08;;;;;;;5.10;4.30;;;;;;;19.03;75.79;100566.59;4902418;28;97734;-72
2021/07/16 02:00:43;;;;;;;6.05;4.40;;;;;;;18.92;75.69;100563.34;4899706;28;99892;-72
2021/07/16 02:03:11;;;;;;;5.20;4.70;;;;;;;18.98;75.43;100564.81;4900161;28;98631;-65
2021/07/16 02:05:41;;;;;;;5.18;4.68;;;;;;;18.95;75.67;100570.91;4901404;28;98386;-72
2021/07/16 02:08:27;;;;;;;4.82;4.43;;;;;;;18.87;75.55;100572.50;4901763;28;99510;-65
2021/07/16 02:10:55;;;;;;;4.90;4.50;;;;;;;18.70;75.80;100575.22;4864324;28;100052;-72
2021/07/16 02:13:21;;;;;;;5.90;4.97;;;;;;;18.58;75.69;100572.28;4897556;28;98718;-66
2021/07/16 02:15:49;;;;;;;5.18;4.68;;;;;;;18.62;75.72;100579.50;4900758;28;110467;-65
2021/07/16 02:18:16;;;;;;;4.53;3.92;;;;;;;18.67;75.34;100575.00;4901579;28;98393;-72
2021/07/16 02:20:43;;;;;;;4.07;3.78;;;;;;;18.58;75.30;100580.47;4899522;28;108141;-66
2021/07/16 02:23:17;;;;;;;4.97;4.20;;;;;;;18.53;75.21;100577.88;4899905;28;127413;-65
2021/07/16 02:25:44;;;;;;;4.30;3.47;;;;;;;18.62;75.23;100576.78;4900704;28;114891;-65
2021/07/16 02:28:19;;;;;;;5.07;4.20;;;;;;;18.56;75.04;100574.53;4902310;28;98222;-72
2021/07/16 02:30:45;;;;;;;4.30;3.80;;;;;;;18.45;75.52;100584.13;4901322;28;98375;-72
2021/07/16 02:33:11;;;;;;;5.57;3.72;;;;;;;18.44;75.46;100582.53;4900928;28;100868;-65
2021/07/16 02:35:37;;;;;;;3.88;3.58;;;;;;;18.54;75.18;100574.03;4904531;28;98036;-71
2021/07/16 02:38:05;;;;;;;4.55;3.83;;;;;;;18.52;75.61;100568.09;4903829;28;117342;-65
2021/07/16 02:40:32;;;;;;;4.25;3.85;;;;;;;18.64;75.37;100563.63;4902384;28;98569;-71
2021/07/16 02:42:58;;;;;;;4.55;3.45;;;;;;;18.65;75.04;100567.16;4885521;28;98439;-72
2021/07/16 02:45:24;;;;;;;3.90;3.50;;;;;;;18.35;75.43;100566.94;4890628;28;97937;-71
2021/07/16 02:47:51;;;;;;;4.30;3.90;;;;;;;18.40;75.88;100572.25;4887747;28;97913;-65
2021/07/16 02:50:25;;;;;;;4.70;4.30;;;;;;;18.21;76.34;100570.91;4903339;28;116649;-71
2021/07/16 02:52:52;;;;;;;4.20;3.80;;;;;;;18.29;76.25;100576.38;4904721;28;98470;-71
2021/07/16 02:55:19;;;;;;;4.82;4.32;;;;;;;18.19;76.34;100582.09;4902699;28;98335;-71
2021/07/16 02:57:45;;;;;;;4.85;4.45;;;;;;;18.18;76.75;100585.16;4903248;28;97826;-65
2021/07/16 03:00:14;;;;;;;5.43;4.93;;;;;;;18.08;77.04;100597.97;4904082;28;98078;-65
2021/07/16 03:02:44;;;;;;;5.30;4.90;;;;;;;17.90;77.65;100591.63;4903941;28;98261;-71
2021/07/16 03:05:20;;;;;;;5.53;5.00;;;;;;;18.02;77.55;100595.69;4904086;28;108042;-65
2021/07/16 03:07:46;;;;;;;6.68;4.90;;;;;;;18.13;76.96;100606.00;4904620;28;98106;-65
2021/07/16 03:10:25;;;;;;;4.95;4.40;;;;;;;18.18;76.85;100602.34;4904418;28;98420;-65
2021/07/16 03:12:53;;;;;;;5.28;4.82;;;;;;;18.07;76.83;100609.19;4905123;28;98249;-65
2021/07/16 03:15:20;;;;;;;5.00;4.50;;;;;;;18.17;76.87;100600.72;4901707;28;115575;-65
2021/07/16 03:17:47;;;;;;;5.00;4.50;;;;;;;18.36;76.41;100605.94;4903602;28;98019;-65
2021/07/16 03:20:19;;;;;;;5.43;4.78;;;;;;;18.09;76.80;100605.03;4902917;28;116308;-72
2021/07/16 03:22:45;;;;;;;7.45;5.05;;;;;;;18.06;77.06;100608.38;4903815;28;116984;-65
2021/07/16 03:25:14;;;;;;;7.18;4.60;;;;;;;17.95;77.96;100623.41;4903464;28;109893;-65
2021/07/16 03:27:40;;;;;;;7.30;5.45;;;;;;;17.67;78.29;100620.81;4904647;28;97810;-65
2021/07/16 03:30:08;;;;;;;5.95;5.35;;;;;;;17.65;78.25;100609.41;4902719;28;128246;-65
2021/07/16 03:32:35;;;;;;;6.43;5.88;;;;;;;17.69;78.24;100609.59;4903521;28;99248;-65
2021/07/16 03:35:02;;;;;;;8.88;6.40;;;;;;;17.68;78.15;100616.16;4903537;28;107134;-71
2021/07/16 03:37:28;;;;;;;6.15;5.55;;;;;;;18.00;77.35;100620.56;4904298;28;103221;-71
2021/07/16 03:39:54;;;;;;;5.70;5.30;;;;;;;18.07;77.08;100623.63;4902768;28;127489;-65
2021/07/16 03:42:20;;;;;;;6.07;5.50;;;;;;;18.12;76.71;100619.97;4903600;28;97926;-71
2021/07/16 03:44:47;;;;;;;6.10;5.50;;;;;;;18.14;76.68;100620.44;4900742;28;127749;-65
2021/07/16 03:47:14;;;;;;;7.70;5.03;;;;;;;18.24;76.55;100617.44;4901359;28;116435;-65
2021/07/16 03:49:40;;;;;;;5.80;5.30;;;;;;;18.15;76.50;100624.78;4901360;28;98632;-65
2021/07/16 03:52:07;;;;;;;5.97;5.38;;;;;;;18.18;76.45;100610.50;4903322;28;106317;-65
2021/07/16 03:54:34;;;;;;;5.88;5.00;;;;;;;18.22;76.74;100611.50;4903289;28;113568;-72
2021/07/16 03:57:00;;;;;;;6.07;5.47;;;;;;;18.06;76.87;100615.75;4904071;28;97878;-71
2021/07/16 03:59:26;;;;;;;5.28;4.78;;;;;;;18.27;76.40;100624.97;4902416;28;128043;-71
2021/07/16 04:01:52;;;;;;;5.72;5.20;;;;;;;18.28;76.37;100626.63;4903394;28;98544;-65
2021/07/16 04:04:18;;;;;;;5.05;4.55;;;;;;;18.42;76.28;100622.97;4900619;28;114481;-66
2021/07/16 04:06:53;;;;;;;7.18;4.85;;;;;;;18.42;76.53;100629.22;4903443;28;117524;-65
2021/07/16 04:09:32;;;;;;;5.20;4.68;;;;;;;18.49;76.36;100623.31;4902055;28;98884;-65
2021/07/16 04:12:16;;;;;;;4.93;4.53;;;;;;;18.42;76.26;100622.97;4901810;28;97894;-71
2021/07/16 04:14:52;;;;;;;5.82;5.18;;;;;;;18.11;76.99;100632.78;4903600;28;99114;-70
2021/07/16 04:17:25;;;;;;;6.20;5.43;;;;;;;18.19;76.97;100635.88;4903071;28;98015;-65
2021/07/16 04:19:51;;;;;;;5.50;4.80;;;;;;;18.19;76.76;100624.97;4902440;28;98247;-65
2021/07/16 04:22:21;;;;;;;5.78;5.25;;;;;;;18.26;76.83;100637.03;4903637;28;98463;-65
2021/07/16 04:24:48;;;;;;;6.35;4.75;;;;;;;18.49;76.43;100628.78;4904178;28;98077;-65
2021/07/16 04:27:14;;;;;;;5.50;4.82;;;;;;;18.40;76.17;100645.13;4901366;28;97803;-71
2021/07/16 04:29:41;;;;;;;5.28;4.78;;;;;;;18.57;76.46;100628.78;4902520;28;127771;-65
2021/07/16 04:32:07;;;;;;;5.20;4.70;;;;;;;18.58;76.12;100637.78;4899839;28;107285;-65
2021/07/16 04:34:35;;;;;;;5.65;4.53;;;;;;;18.67;75.68;100644.09;4900782;28;109419;-72
2021/07/16 04:37:02;;;;;;;6.15;4.60;;;;;;;18.86;75.61;100636.47;4869326;28;98785;-71
2021/07/16 04:39:28;;;;;;;6.10;4.22;;;;;;;18.89;75.31;100637.72;4885854;28;97939;-65
2021/07/16 04:41:54;;;;;;;6.57;4.90;;;;;;;18.90;74.82;100636.59;4901892;28;129143;-71
2021/07/16 04:44:21;;;;;;;6.25;4.53;;;;;;;18.93;74.65;100630.50;4883493;28;105364;-71
2021/07/16 04:46:47;;;;;;;5.07;4.32;;;;;;;18.84;74.99;100641.41;4902140;28;106204;-71
2021/07/16 04:49:13;;;;;;;5.60;4.25;;;;;;;18.89;74.99;100651.38;4885287;28;98621;-71
2021/07/16 04:51:40;;;;;;;5.20;4.70;;;;;;;18.78;75.01;100650.88;4900938;28;98631;-65
2021/07/16 04:54:06;;;;;;;4.45;4.05;;;;;;;18.83;75.46;100656.19;4901954;28;127450;-71
2021/07/16 04:56:32;;;;;;;6.30;4.50;;;;;;;19.00;75.53;100652.69;4903119;28;97773;-65
2021/07/16 04:58:58;;;;;;;5.20;4.45;;;;;;;19.03;74.95;100651.25;4901700;28;119167;-71
2021/07/16 05:01:25;;;;;;;4.32;3.97;;;;;;;19.31;74.31;100660.75;4902116;28;126738;-65
2021/07/16 05:03:52;;;;;;;6.75;4.05;;;;;;;19.22;74.67;100662.69;4901727;28;107322;-71
2021/07/16 05:06:18;;;;;;;4.25;3.80;;;;;;;19.45;73.73;100668.78;4904004;28;97968;-65
2021/07/16 05:08:45;;;;;;;5.05;4.15;;;;;;;19.71;73.04;100670.72;4901908;28;114932;-71
2021/07/16 05:11:11;;;;;;;4.18;3.72;;;;;;;19.73;72.47;100671.19;4902400;28;98958;-65
2021/07/16 05:13:37;;;;;;;4.38;3.42;;;;;;;19.76;72.17;100671.34;4903030;28;98826;-71
2021/07/16 05:16:05;;;;;;;3.85;3.50;;;;;;;20.07;71.55;100673.88;4902280;28;97656;-65
2021/07/16 05:18:31;;;;;;;4.28;3.40;;;;;;;20.25;70.78;100673.84;4901889;28;117973;-65
2021/07/16 05:20:58;;;;;;;5.25;3.60;;;;;;;20.44;70.42;100670.72;4900095;28;105791;-71
2021/07/16 05:23:24;;;;;;;3.38;3.08;;;;;;;20.17;70.70;100670.00;4900170;28;116115;-71
2021/07/16 05:25:50;;;;;;;6.45;3.50;;;;;;;20.50;69.51;100674.88;4902882;28;97710;-65
2021/07/16 05:28:16;;;;;;;5.75;3.10;;;;;;;20.68;69.36;100673.69;4901252;28;127860;-70
2021/07/16 05:30:42;;;;;;;4.20;3.00;;;;;;;20.83;69.00;100683.28;4902147;28;98158;-65
2021/07/16 05:33:08;;;;;;;4.93;2.90;;;;;;;21.08;68.39;100676.81;4901909;28;97851;-70
2021/07/16 05:35:34;;;;;;;5.00;3.10;;;;;;;21.23;68.42;100688.34;4901867;28;108332;-65
2021/07/16 05:38:00;;;;;;;5.13;2.83;;;;;;;21.10;68.17;100681.94;4901273;28;126750;-65
2021/07/16 05:40:27;;;;;;;6.05;2.80;;;;;;;21.55;67.19;100684.06;4901703;28;128009;-71
2021/07/16 05:42:53;;;;;;;6.82;2.75;;;;;;;21.37;66.40;100690.81;4901842;28;98749;-71
2021/07/16 05:45:19;;;;;;;4.57;2.63;;;;;;;21.54;66.30;100691.50;4900697;28;116741;-71
2021/07/16 05:47:46;;;;;;;3.90;3.03;;;;;;;21.56;66.06;100696.63;4900879;28;128590;-71
2021/07/16 05:50:12;;;;;;;3.67;2.67;;;;;;;21.82;65.34;100696.41;4900801;28;98018;-65
2021/07/16 05:52:38;;;;;;;4.88;2.65;;;;;;;21.94;64.94;100701.13;4901634;28;116068;-65
2021/07/16 05:55:05;;;;;;;3.67;2.42;;;;;;;22.37;63.96;100697.94;4882122;28;116813;-65
2021/07/16 05:57:31;;;;;;;6.18;2.30;;;;;;;22.58;63.54;100697.84;4898762;28;115879;-71
2021/07/16 05:59:58;;;;;;;2.78;2.50;;;;;;;23.14;61.43;100692.56;4899564;28;117143;-71
2021/07/16 06:02:24;;;;;;;5.65;2.20;;;;;;;24.38;56.60;100693.66;4881853;28;122318;-65
2021/07/16 06:04:50;;;;;;;5.22;2.50;;;;;;;25.36;54.84;100701.91;4881490;28;115889;-65
2021/07/16 06:07:17;;;;;;;3.95;1.88;;;;;;;25.70;53.89;100714.03;4881798;28;128108;-71
2021/07/16 06:09:43;;;;;;;3.63;2.03;;;;;;;25.04;55.70;100711.41;4886074;28;98847;-66
2021/07/16 06:12:09;;;;;;;4.43;1.92;;;;;;;24.46;56.94;100715.53;4886046;28;98256;-71
2021/07/16 06:14:35;;;;;;;4.57;2.30;;;;;;;24.81;55.80;100714.03;4884180;28;105852;-71
2021/07/16 06:17:01;;;;;;;6.18;2.38;;;;;;;25.67;53.84;100720.28;4866625;28;128081;-66
2021/07/16 06:19:27;;;;;;;2.53;1.60;;;;;;;26.12;52.81;100724.31;4847615;28;127659;-66
2021/07/16 06:21:53;;;;;;;4.03;1.83;;;;;;;27.65;48.96;100722.34;4864722;28;111275;-66
2021/07/16 06:24:19;;;;;;;3.30;1.80;;;;;;;29.39;44.25;100727.06;4881514;28;97989;-71
2021/07/16 06:26:45;;;;;;;4.60;1.60;;;;;;;29.16;44.86;100735.66;4882715;28;127626;-65
2021/07/16 06:29:11;;;;;;;5.35;1.90;;;;;;;29.58;43.54;100730.34;4884071;28;128266;-71
2021/07/16 06:31:37;;;;;;;3.38;1.70;;;;;;;29.69;43.29;100732.38;4884936;28;127243;-71
2021/07/16 06:34:04;;;;;;;3.75;1.80;;;;;;;29.81;42.32;100720.91;4884146;28;115768;-71
2021/07/16 06:36:30;;;;;;;3.72;1.70;;;;;;;29.83;42.92;100707.44;4885159;28;98620;-65
2021/07/16 06:38:56;;;;;;;4.20;1.70;;;;;;;29.85;43.43;100713.38;4866840;28;127424;-71
2021/07/16 06:41:22;;;;;;;4.28;1.75;;;;;;;28.50;46.31;100711.41;4867504;28;127575;-71
2021/07/16 06:43:48;;;;;;;4.00;1.60;;;;;;;28.75;44.66;100705.25;4851826;28;98238;-71
2021/07/16 06:46:15;;;;;;;3.30;1.80;;;;;;;28.71;45.05;100716.31;4884095;28;128450;-65
2021/07/16 06:48:43;;;;;;;4.93;2.10;;;;;;;29.62;43.78;100708.16;4884386;28;98372;-71
2021/07/16 06:51:10;;;;;;;4.85;1.55;;;;;;;30.07;43.84;100723.38;4883611;28;97946;-65
2021/07/16 06:53:36;;;;;;;5.82;1.70;;;;;;;29.13;45.02;100720.59;4884424;28;108075;-65
2021/07/16 06:56:03;;;;;;;3.95;2.00;;;;;;;27.36;48.63;100723.97;4883950;28;128042;-70
2021/07/16 06:58:29;;;;;;;5.55;1.83;;;;;;;26.38;50.68;100722.81;4867268;28;97959;-71
2021/07/16 07:00:55;;;;;;;4.63;2.35;;;;;;;25.49;54.21;100713.59;4891677;28;118812;-65
2021/07/16 07:03:26;;;;;;;4.18;2.13;;;;;;;25.73;53.98;100715.25;4902595;28;97945;-65
2021/07/16 07:05:56;;;;;;;4.27;2.40;;;;;;;26.37;51.50;100713.75;4891160;28;98173;-65
2021/07/16 07:08:22;;;;;;;5.30;2.28;;;;;;;26.54;51.15;100715.22;4903180;28;98966;-70
2021/07/16 07:10:48;;;;;;;4.35;2.25;;;;;;;26.86;50.51;100715.72;4903539;28;98071;-71
2021/07/16 07:13:15;;;;;;;5.78;2.35;;;;;;;26.82;50.72;100714.88;4903746;28;97878;-71
2021/07/16 07:15:41;;;;;;;3.30;2.38;;;;;;;28.11;48.42;100717.38;4903392;28;116302;-71
2021/07/16 07:18:07;;;;;;;3.88;2.97;;;;;;;29.15;44.64;100715.44;4901735;28;128352;-65
2021/07/16 07:20:34;;;;;;;4.28;2.58;;;;;;;29.28;44.93;100721.47;4902146;28;115996;-70
2021/07/16 07:23:01;;;;;;;5.32;2.88;;;;;;;29.48;44.59;100716.41;4901736;28;97993;-70
2021/07/16 07:25:27;;;;;;;5.03;2.80;;;;;;;29.69;44.07;100724.84;4901904;28;119925;-65
2021/07/16 07:27:53;;;;;;;6.93;2.60;;;;;;;28.80;45.95;100719.56;4900459;28;127243;-70
2021/07/16 07:30:20;;;;;;;3.05;2.70;;;;;;;28.91;45.26;100727.94;4902384;28;103472;-70
2021/07/16 07:32:46;;;;;;;6.15;2.35;;;;;;;29.11;44.80;100720.97;4901954;28;97955;-70
2021/07/16 07:35:12;;;;;;;4.05;2.60;;;;;;;28.21;47.06;100734.47;4901007;28;127675;-65
2021/07/16 07:37:39;;;;;;;4.85;2.60;;;;;;;26.74;50.01;100734.50;4901153;28;98555;-65
2021/07/16 07:40:07;;;;;;;6.07;2.95;;;;;;;26.16;52.36;100718.88;4902855;28;97873;-65
2021/07/16 07:42:33;;;;;;;3.80;2.22;;;;;;;26.02;53.31;100721.38;4902725;28;101054;-64
2021/07/16 07:44:59;;;;;;;4.65;2.25;;;;;;;26.34;52.22;100722.75;4901379;28;128821;-71
2021/07/16 07:47:31;;;;;;;6.05;2.33;;;;;;;25.88;53.85;100728.22;4899878;28;128309;-69
2021/07/16 07:49:57;;;;;;;5.90;2.78;;;;;;;26.63;51.56;100729.56;4902887;28;98485;-69
2021/07/16 07:52:24;;;;;;;17.60;2.90;;;;;;;26.69;52.64;100730.09;4902433;28;110149;-70
2021/07/16 07:54:50;;;;;;;5.13;2.67;;;;;;;27.05;51.05;100733.41;4901546;28;108942;-70
2021/07/16 07:57:16;;;;;;;3.70;2.55;;;;;;;28.77;46.84;100722.31;4902069;28;127084;-71
2021/07/16 07:59:43;;;;;;;6.60;2.20;;;;;;;29.43;45.16;100717.56;4901223;28;115138;-72
2021/07/16 08:02:36;;;;;;;3.55;2.35;;;;;;;29.68;44.34;100723.25;4961334;28;97790;-73
2021/07/16 08:05:02;;;;;;;5.05;2.40;;;;;;;28.86;45.89;100725.53;4923291;28;101567;-71
2021/07/16 08:07:28;;;;;;;4.03;2.47;;;;;;;27.29;49.31;100716.38;4917490;28;113421;-71
2021/07/16 08:09:54;;;;;;;5.40;2.55;;;;;;;26.57;52.49;100720.03;4918966;28;127702;-64
2021/07/16 08:12:20;;;;;;;3.38;3.03;;;;;;;26.29;52.97;100714.78;4920109;28;97833;-70
2021/07/16 08:14:46;;;;;;;3.10;2.40;;;;;;;27.34;51.17;100715.25;4919541;28;111012;-64
2021/07/16 08:17:12;;;;;;;6.70;2.83;;;;;;;27.09;50.90;100712.13;4918903;28;128074;-70
2021/07/16 08:19:38;;;;;;;4.22;2.80;;;;;;;27.56;49.99;100714.34;4886184;28;97869;-70
2021/07/16 08:22:05;;;;;;;3.90;3.03;;;;;;;28.98;47.04;100714.16;4919772;28;97992;-71
2021/07/16 08:24:31;;;;;;;4.75;2.70;;;;;;;28.80;46.82;100719.56;4918720;28;97982;-71
2021/07/16 08:26:57;;;;;;;4.20;2.63;;;;;;;29.04;46.27;100715.41;4918670;28;126985;-71
2021/07/16 08:29:23;;;;;;;3.75;2.80;;;;;;;29.29;46.56;100723.84;4919779;28;98134;-65
2021/07/16 08:31:49;;;;;;;3.20;2.90;;;;;;;28.22;48.84;100731.31;4901708;28;98472;-70
2021/07/16 08:34:16;;;;;;;3.63;3.05;;;;;;;28.35;48.82;100724.31;4919583;28;98364;-64
2021/07/16 08:36:44;;;;;;;3.17;2.05;;;;;;;28.03;48.93;100729.56;4919543;28;99173;-64
2021/07/16 08:39:10;;;;;;;3.65;2.30;;;;;;;27.50;51.26;100732.44;4919916;28;98456;-70
2021/07/16 08:41:36;;;;;;;3.22;2.10;;;;;;;26.90;50.73;100737.91;4919470;28;98283;-64
2021/07/16 08:44:02;;;;;;;6.15;2.42;;;;;;;27.63;50.16;100731.06;4900419;28;110821;-64
2021/07/16 08:46:28;;;;;;;5.88;2.83;;;;;;;27.74;50.13;100736.72;4918349;28;116308;-71
2021/07/16 08:48:59;;;;;;;3.30;3.00;;;;;;;33.08;37.98;100733.38;4917186;28;124691;-65
2021/07/16 08:51:25;;;;;;;3.40;2.70;;;;;;;34.61;34.46;100744.50;4919353;28;98246;-72
2021/07/16 08:53:55;;;;;;;5.00;2.35;;;;;;;35.47;33.56;100742.94;4919134;28;98927;-66
2021/07/16 08:56:26;;;;;;;4.10;2.30;;;;;;;34.58;34.90;100742.56;4919451;28;98355;-72
2021/07/16 08:58:52;;;;;;;3.65;2.20;;;;;;;35.49;33.48;100737.69;4918478;28;98584;-66
2021/07/16 09:01:18;;;;;;;3.55;2.63;;;;;;;36.32;32.63;100743.88;4918294;28;118329;-72
2021/07/16 09:04:02;;;;;;;5.03;2.50;;;;;;;37.25;30.54;100735.84;4918631;28;104566;-66
2021/07/16 09:06:57;;;;;;;2.40;2.03;;;;;;;37.25;31.81;100732.25;4918483;28;99265;-72
2021/07/16 09:09:31;;;;;;;3.88;2.10;;;;;;;37.86;30.89;100734.09;4918638;28;98272;-66
2021/07/16 09:11:58;;;;;;;4.43;2.17;;;;;;;36.41;32.40;100736.84;4899653;28;98402;-66
2021/07/16 09:14:29;;;;;;;2.28;2.05;;;;;;;38.13;29.63;100732.88;4905607;28;98098;-71
2021/07/16 09:16:58;;;;;;;4.07;2.70;;;;;;;38.48;28.85;100728.13;4905775;28;98343;-71
2021/07/16 09:19:43;;;;;;;2.58;2.15;;;;;;;39.41;27.90;100720.00;4906261;28;98263;-71
2021/07/16 09:22:22;;;;;;;4.78;2.47;;;;;;;38.33;29.77;100719.38;4906129;28;98211;-71
2021/07/16 09:24:57;;;;;;;3.97;3.10;;;;;;;37.08;31.30;100709.84;4906117;28;97920;-66
2021/07/16 09:27:42;;;;;;;5.03;2.60;;;;;;;34.52;34.57;100708.69;4902912;28;99341;-66
2021/07/16 09:30:23;;;;;;;4.35;2.60;;;;;;;35.18;34.01;100709.91;4905173;28;98910;-71
2021/07/16 09:32:55;;;;;;;4.95;2.75;;;;;;;34.83;35.12;100714.94;4905549;28;98227;-66
2021/07/16 09:35:32;;;;;;;2.90;2.58;;;;;;;35.81;34.06;100711.81;4906206;28;97927;-66
2021/07/16 09:38:05;;;;;;;3.35;2.20;;;;;;;35.48;32.76;100711.66;4911038;28;98320;-72
2021/07/16 09:40:43;;;;;;;3.10;2.00;;;;;;;35.88;33.70;100708.81;4887646;28;100175;-71
2021/07/16 09:43:15;;;;;;;3.78;2.10;;;;;;;38.36;29.59;100701.59;4887869;28;98133;-71
2021/07/16 09:45:59;;;;;;;2.78;2.17;;;;;;;38.65;29.25;100709.84;4905093;28;97814;-71
2021/07/16 09:48:34;;;;;;;4.68;2.40;;;;;;;38.82;28.82;100701.25;4886098;28;99052;-71
2021/07/16 09:51:16;;;;;;;2.85;2.55;;;;;;;38.98;27.13;100704.66;4886358;28;98443;-71
2021/07/16 09:54:06;;;;;;;5.32;2.20;;;;;;;35.61;32.27;100701.44;4898739;28;97972;-65
2021/07/16 09:56:36;;;;;;;5.15;2.88;;;;;;;35.62;33.72;100693.81;4905666;28;97866;-70
2021/07/16 09:59:13;;;;;;;3.67;2.60;;;;;;;33.62;37.19;100691.66;4905326;28;98335;-66
2021/07/16 10:01:41;;;;;;;6.75;4.00;;;;;;;36.01;32.79;100700.56;4904580;28;97866;-70
2021/07/16 10:04:18;;;;;;;5.18;3.33;;;;;;;37.41;29.48;100701.31;4904905;28;106269;-71
2021/07/16 10:06:47;;;;;;;4.43;3.13;;;;;;;37.20;30.31;100702.69;4905595;28;97909;-66
2021/07/16 10:09:13;;;;;;;3.80;3.08;;;;;;;35.39;33.65;100695.44;4909272;28;98724;-70
2021/07/16 10:11:40;;;;;;;5.10;3.20;;;;;;;37.20;30.29;100704.72;4903395;28;98187;-66
2021/07/16 10:14:08;;;;;;;4.13;3.70;;;;;;;37.55;30.23;100712.13;4869247;28;126273;-71
2021/07/16 10:16:36;;;;;;;5.30;3.90;;;;;;;37.68;29.79;100705.72;4920271;28;98305;-71
2021/07/16 10:19:02;;;;;;;3.83;3.40;;;;;;;37.67;29.27;100692.91;4899597;28;99198;-66
2021/07/16 10:21:28;;;;;;;3.83;3.42;;;;;;;37.78;29.23;100701.81;4885114;28;127513;-66
2021/07/16 10:23:55;;;;;;;5.15;3.70;;;;;;;36.73;31.15;100686.31;4887233;28;127565;-66
2021/07/16 10:26:22;;;;;;;4.30;3.67;;;;;;;35.30;33.26;100697.28;4903503;28;111437;-71
2021/07/16 10:28:48;;;;;;;5.85;5.32;;;;;;;33.96;35.44;100691.56;4904516;28;98501;-70
2021/07/16 10:31:30;;;;;;;6.03;5.43;;;;;;;32.51;39.79;100692.84;4886915;28;98624;-70
2021/07/16 10:33:56;;;;;;;7.95;7.15;;;;;;;32.04;41.26;100697.16;4904987;28;98127;-66
2021/07/16 10:36:41;;;;;;;8.82;7.82;;;;;;;31.25;42.56;100701.09;4904822;28;98226;-70
2021/07/16 10:39:11;;;;;;;9.82;8.90;;;;;;;29.61;45.61;100697.47;4904621;28;98512;-70
2021/07/16 10:41:41;;;;;;;10.60;9.47;;;;;;;29.96;45.54;100703.09;4886869;28;104858;-65
2021/07/16 10:44:08;;;;;;;10.32;9.43;;;;;;;29.47;47.28;100701.72;4904496;28;98529;-65
2021/07/16 10:46:36;;;;;;;11.52;10.52;;;;;;;29.60;47.35;100713.31;4902002;28;97932;-71
2021/07/16 10:49:05;;;;;;;11.88;10.95;;;;;;;30.50;46.19;100720.66;4904316;28;99174;-65
2021/07/16 10:51:32;;;;;;;11.38;10.30;;;;;;;30.74;45.95;100724.66;4903858;28;99055;-70
2021/07/16 10:54:00;;;;;;;11.18;10.27;;;;;;;31.66;44.46;100727.59;4903935;28;98281;-71
2021/07/16 10:56:46;;;;;;;12.57;11.52;;;;;;;30.85;46.02;100727.44;4904285;28;97746;-71
2021/07/16 10:59:45;;;;;;;11.93;10.82;;;;;;;31.71;43.93;100729.94;4903470;28;98041;-66
2021/07/16 11:02:41;;;;;;;12.20;11.07;;;;;;;30.73;45.45;100736.97;4903172;28;99115;-71
2021/07/16 11:05:46;;;;;;;11.48;10.43;;;;;;;32.34;42.21;100739.13;4902374;28;98578;-71
2021/07/16 11:08:37;;;;;;;11.43;10.32;;;;;;;32.58;41.67;100736.59;4899567;28;99708;-71
2021/07/16 11:11:05;;;;;;;11.90;10.70;;;;;;;33.19;40.10;100737.63;4900296;28;99382;-70
2021/07/16 11:13:35;;;;;;;11.20;10.13;;;;;;;34.15;38.62;100735.66;4894206;28;98919;-71
2021/07/16 11:16:24;;;;;;;10.90;9.90;;;;;;;34.33;38.93;100740.94;4903472;28;98221;-66
2021/07/16 11:18:56;;;;;;;10.48;9.57;;;;;;;34.88;35.54;100736.84;4883824;28;98555;-71
2021/07/16 11:21:45;;;;;;;10.82;9.88;;;;;;;33.92;38.75;100733.56;4884515;28;120235;-71
2021/07/16 11:24:20;;;;;;;9.90;9.00;;;;;;;33.30;39.55;100728.34;4900558;28;98504;-66
2021/07/16 11:26:51;;;;;;;9.38;8.57;;;;;;;34.48;38.11;100730.31;4903812;28;98075;-70
2021/07/16 11:29:19;;;;;;;8.98;8.18;;;;;;;33.91;38.63;100734.75;4901797;28;97917;-71